Time;durP1;ratioP1;P1;durP2;ratioP2;P2;SDS_P1;SDS_P2;PMS_P1;PMS_P2;Temp;Humidity;BMP_temperature;BMP_pressure;BME280_temperature;BME280_humidity;BME280_pressure;Samples;Min_cycle;Max_cycle;Signal;HPM_P1;HPM_P2
2022/09/23 00:00:35;;;;;;;1.75;1.60;;;17.60;59.50;;;;;;5074524;28;20243;-61
2022/09/23 00:03:01;;;;;;;2.53;1.90;;;17.50;59.50;;;;;;5073839;28;20661;-61
2022/09/23 00:05:28;;;;;;;1.80;1.70;;;17.60;59.50;;;;;;5074688;28;20532;-61
2022/09/23 00:07:54;;;;;;;3.05;1.80;;;17.60;59.50;;;;;;5074671;28;20209;-61
2022/09/23 00:10:20;;;;;;;2.35;1.80;;;17.60;59.50;;;;;;5073278;28;20242;-61
2022/09/23 00:12:46;;;;;;;1.60;1.50;;;17.60;59.50;;;;;;5074314;28;20182;-61
2022/09/23 00:15:11;;;;;;;1.77;1.67;;;17.60;59.60;;;;;;5073901;28;20267;-62
2022/09/23 00:17:37;;;;;;;2.50;1.77;;;17.60;59.50;;;;;;5073636;28;20178;-62
2022/09/23 00:20:03;;;;;;;2.05;1.60;;;17.60;59.50;;;;;;5074059;28;20181;-61
2022/09/23 00:22:29;;;;;;;1.80;1.70;;;17.60;59.50;;;;;;5074293;28;20201;-62
2022/09/23 00:24:54;;;;;;;2.13;1.80;;;17.60;59.50;;;;;;5073462;28;20228;-62
2022/09/23 00:27:20;;;;;;;2.22;2.03;;;17.60;59.60;;;;;;5073925;28;20606;-62
2022/09/23 00:29:46;;;;;;;2.28;2.10;;;17.50;59.50;;;;;;5074134;28;20547;-61
2022/09/23 00:32:12;;;;;;;1.77;1.67;;;17.50;59.50;;;;;;5073229;28;20179;-61
2022/09/23 00:34:37;;;;;;;2.17;1.83;;;17.50;59.50;;;;;;5074046;28;20200;-61
2022/09/23 00:37:03;;;;;;;1.80;1.70;;;17.50;59.50;;;;;;5073527;28;20209;-61
2022/09/23 00:39:28;;;;;;;1.73;1.63;;;17.50;59.50;;;;;;5072935;28;20178;-61
2022/09/23 00:41:54;;;;;;;1.60;1.48;;;17.50;59.50;;;;;;5073574;28;20186;-61
2022/09/23 00:44:46;;;;;;;1.80;1.70;;;17.50;59.50;;;;;;5072794;28;20653;-61
2022/09/23 00:47:31;;;;;;;2.05;1.80;;;17.50;59.50;;;;;;5073530;28;20223;-61
2022/09/23 00:50:34;;;;;;;1.90;1.80;;;17.50;59.50;;;;;;5073742;28;20170;-61
2022/09/23 00:53:02;;;;;;;2.00;1.80;;;17.50;59.50;;;;;;5069783;28;20248;-61
2022/09/23 00:55:31;;;;;;;2.03;1.80;;;17.60;59.50;;;;;;5056028;28;20215;-61
2022/09/23 00:57:58;;;;;;;1.80;1.70;;;17.50;59.50;;;;;;5055747;28;20675;-61
2022/09/23 01:00:23;;;;;;;2.55;1.88;;;17.50;59.50;;;;;;5072809;28;20186;-61
2022/09/23 01:02:49;;;;;;;1.70;1.60;;;17.50;59.50;;;;;;5073505;28;20179;-61
2022/09/23 01:05:15;;;;;;;1.75;1.65;;;17.50;59.60;;;;;;5073296;28;20661;-61
2022/09/23 01:07:40;;;;;;;2.17;1.95;;;17.50;59.60;;;;;;5071412;28;20174;-61
2022/09/23 01:10:06;;;;;;;2.40;2.13;;;17.50;59.50;;;;;;5072898;28;20313;-62
2022/09/23 01:12:41;;;;;;;2.00;1.90;;;17.50;59.60;;;;;;5071337;28;20187;-61
2022/09/23 01:15:25;;;;;;;1.90;1.80;;;17.50;59.50;;;;;;5071637;28;20198;-62
2022/09/23 01:18:09;;;;;;;1.50;1.40;;;17.50;59.60;;;;;;5073432;28;20173;-61
2022/09/23 01:20:59;;;;;;;2.20;1.73;;;17.50;59.60;;;;;;5072535;28;20185;-61
2022/09/23 01:23:57;;;;;;;2.60;1.83;;;17.40;59.50;;;;;;5072300;28;20178;-61
2022/09/23 01:26:30;;;;;;;2.10;1.90;;;17.50;59.50;;;;;;5072315;28;20174;-61
2022/09/23 01:29:26;;;;;;;1.63;1.48;;;17.40;59.50;;;;;;5071998;28;20177;-61
2022/09/23 01:32:01;;;;;;;2.13;1.92;;;17.40;59.60;;;;;;5073157;28;20178;-60
2022/09/23 01:34:48;;;;;;;2.00;1.90;;;17.40;59.50;;;;;;5072188;28;20521;-61
2022/09/23 01:37:20;;;;;;;2.70;1.80;;;17.40;59.50;;;;;;5072762;28;20684;-61
2022/09/23 01:40:05;;;;;;;2.47;2.05;;;17.40;59.50;;;;;;5071867;28;20221;-61
2022/09/23 01:43:06;;;;;;;2.13;1.90;;;17.40;59.50;;;;;;5072099;28;20182;-61
2022/09/23 01:45:43;;;;;;;2.20;2.00;;;17.40;59.50;;;;;;5069681;28;20234;-61
2022/09/23 01:48:20;;;;;;;1.80;1.70;;;17.40;59.50;;;;;;5070807;28;20257;-60
2022/09/23 01:51:17;;;;;;;2.03;1.92;;;17.40;59.60;;;;;;5072895;28;20505;-61
2022/09/23 01:53:45;;;;;;;1.70;1.60;;;17.40;59.50;;;;;;5062076;28;20269;-61
2022/09/23 01:56:35;;;;;;;2.10;1.90;;;17.40;59.50;;;;;;5053981;28;20214;-61
2022/09/23 01:59:14;;;;;;;1.58;1.48;;;17.40;59.60;;;;;;5062089;28;20185;-61
2022/09/23 02:01:43;;;;;;;1.90;1.80;;;17.40;59.50;;;;;;5071144;28;20174;-61
2022/09/23 02:04:29;;;;;;;1.83;1.70;;;17.40;59.50;;;;;;5072604;28;20176;-61
2022/09/23 02:07:19;;;;;;;1.88;1.77;;;17.40;59.50;;;;;;5071809;28;20232;-61
2022/09/23 02:09:46;;;;;;;2.10;1.92;;;17.40;59.60;;;;;;5070565;28;20226;-61
2022/09/23 02:12:14;;;;;;;1.90;1.80;;;17.40;59.50;;;;;;5071365;28;20311;-61
2022/09/23 02:14:49;;;;;;;1.98;1.88;;;17.40;59.50;;;;;;5071476;28;20178;-62
2022/09/23 02:17:21;;;;;;;2.30;1.92;;;17.30;59.50;;;;;;5070593;28;20189;-62
2022/09/23 02:19:49;;;;;;;2.30;2.20;;;17.30;59.50;;;;;;5072554;28;20209;-61
2022/09/23 02:22:20;;;;;;;1.83;1.73;;;17.30;59.50;;;;;;5070986;28;20186;-61
2022/09/23 02:24:46;;;;;;;2.20;2.00;;;17.30;59.50;;;;;;5072039;28;20198;-61
2022/09/23 02:27:39;;;;;;;1.80;1.70;;;17.30;59.50;;;;;;5054339;28;20649;-61
2022/09/23 02:30:11;;;;;;;1.83;1.73;;;17.30;59.50;;;;;;5070314;28;20277;-61
2022/09/23 02:32:50;;;;;;;1.80;1.70;;;17.30;59.50;;;;;;5055080;28;20178;-61
2022/09/23 02:35:34;;;;;;;2.08;1.98;;;17.30;59.50;;;;;;5072295;28;20412;-62
2022/09/23 02:38:30;;;;;;;2.63;1.95;;;17.30;59.50;;;;;;5055164;28;20223;-61
2022/09/23 02:41:13;;;;;;;1.67;1.52;;;17.30;59.50;;;;;;5071228;28;20233;-61
2022/09/23 02:43:49;;;;;;;2.20;2.00;;;17.30;59.60;;;;;;5072534;28;20175;-61
2022/09/23 02:46:14;;;;;;;2.17;2.00;;;17.30;59.50;;;;;;5070439;28;20298;-60
2022/09/23 02:48:45;;;;;;;2.22;2.03;;;17.30;59.50;;;;;;5071117;28;20182;-61
2022/09/23 02:51:10;;;;;;;1.70;1.60;;;17.30;59.60;;;;;;5070040;28;20960;-61
2022/09/23 02:53:36;;;;;;;2.35;2.13;;;17.30;59.60;;;;;;5054296;28;20183;-61
2022/09/23 02:56:10;;;;;;;2.05;1.95;;;17.30;59.50;;;;;;5071973;28;20223;-61
2022/09/23 02:58:36;;;;;;;1.90;1.80;;;17.30;59.50;;;;;;5070451;28;20512;-61
2022/09/23 03:01:20;;;;;;;1.98;1.83;;;17.30;59.50;;;;;;5071957;28;20629;-61
2022/09/23 03:04:13;;;;;;;2.00;1.90;;;17.30;59.60;;;;;;5057498;28;20220;-61
2022/09/23 03:06:48;;;;;;;2.05;1.88;;;17.20;59.50;;;;;;5074182;28;20182;-61
2022/09/23 03:09:23;;;;;;;2.17;2.08;;;17.20;59.50;;;;;;5074195;28;20220;-61
2022/09/23 03:11:52;;;;;;;2.42;2.03;;;17.20;60.10;;;;;;5074490;28;20656;-61
2022/09/23 03:14:30;;;;;;;2.00;1.90;;;17.20;59.50;;;;;;5073204;28;20661;-61
2022/09/23 03:17:11;;;;;;;2.95;2.33;;;17.20;59.40;;;;;;5074272;28;20544;-62
2022/09/23 03:19:45;;;;;;;2.47;2.28;;;17.20;59.50;;;;;;5057746;28;20175;-61
2022/09/23 03:22:31;;;;;;;2.13;1.92;;;17.20;59.50;;;;;;5074065;28;20178;-61
2022/09/23 03:25:12;;;;;;;2.17;2.08;;;17.20;59.50;;;;;;5060236;28;20202;-61
2022/09/23 03:27:37;;;;;;;2.60;2.40;;;17.20;59.50;;;;;;5058506;28;20182;-61
2022/09/23 03:30:03;;;;;;;1.88;1.77;;;17.20;59.50;;;;;;5073782;28;20186;-61
2022/09/23 03:32:30;;;;;;;2.42;2.22;;;17.20;59.50;;;;;;5073985;28;20606;-60
2022/09/23 03:34:58;;;;;;;2.50;2.30;;;17.20;59.50;;;;;;5073196;28;20174;-61
2022/09/23 03:37:37;;;;;;;1.95;1.85;;;17.20;59.50;;;;;;5074113;28;20232;-61
2022/09/23 03:40:16;;;;;;;2.60;2.28;;;17.20;59.50;;;;;;5057456;28;20171;-61
2022/09/23 03:42:42;;;;;;;2.05;1.95;;;17.20;59.50;;;;;;5057804;28;20185;-61
2022/09/23 03:45:17;;;;;;;2.05;1.85;;;17.20;59.50;;;;;;5074765;28;20551;-61
2022/09/23 03:47:42;;;;;;;2.10;2.00;;;17.10;59.50;;;;;;5057189;28;20173;-61
2022/09/23 03:50:08;;;;;;;2.22;2.03;;;17.20;59.50;;;;;;5074751;28;20569;-61
2022/09/23 03:52:34;;;;;;;2.10;2.00;;;17.20;59.50;;;;;;5074728;28;20170;-61
2022/09/23 03:55:00;;;;;;;2.65;2.08;;;17.20;59.50;;;;;;5073777;28;20174;-61
2022/09/23 03:57:25;;;;;;;2.45;2.25;;;17.10;59.50;;;;;;5074753;28;20182;-61
2022/09/23 03:59:51;;;;;;;2.50;2.30;;;17.20;59.50;;;;;;5074604;28;20171;-61
2022/09/23 04:02:17;;;;;;;2.47;2.25;;;17.10;59.50;;;;;;5073611;28;20178;-61
2022/09/23 04:04:43;;;;;;;2.55;2.35;;;17.10;59.50;;;;;;5074756;28;20182;-61
2022/09/23 04:07:09;;;;;;;3.05;2.20;;;17.20;59.50;;;;;;5074491;28;20174;-61
2022/09/23 04:09:35;;;;;;;2.30;2.20;;;17.10;59.50;;;;;;5073552;28;20710;-61
2022/09/23 04:12:00;;;;;;;2.47;2.28;;;17.10;59.40;;;;;;5074219;28;20175;-61
2022/09/23 04:14:26;;;;;;;2.85;2.65;;;17.10;59.50;;;;;;5073955;28;20656;-61
2022/09/23 04:16:52;;;;;;;2.60;2.40;;;17.10;59.50;;;;;;5073317;28;20218;-61
2022/09/23 04:19:17;;;;;;;2.58;2.38;;;17.10;59.50;;;;;;5074224;28;20510;-61
2022/09/23 04:21:43;;;;;;;2.72;2.53;;;17.10;59.50;;;;;;5074575;28;20177;-61
2022/09/23 04:24:08;;;;;;;2.53;2.30;;;17.20;59.50;;;;;;5073076;28;20178;-61
2022/09/23 04:26:35;;;;;;;2.58;2.38;;;17.10;59.50;;;;;;5074172;28;20166;-62
2022/09/23 04:29:01;;;;;;;2.42;2.22;;;17.10;59.50;;;;;;5073943;28;20182;-62
2022/09/23 04:31:27;;;;;;;3.35;1.92;;;17.10;59.60;;;;;;5073578;28;20181;-62
2022/09/23 04:33:53;;;;;;;2.42;2.22;;;17.10;59.50;;;;;;5074247;28;20183;-62
2022/09/23 04:36:18;;;;;;;2.00;1.90;;;17.10;59.50;;;;;;5073766;28;20217;-62
2022/09/23 04:38:44;;;;;;;2.72;2.33;;;17.10;59.50;;;;;;5073344;28;20189;-64
2022/09/23 04:41:10;;;;;;;2.50;2.30;;;17.10;59.50;;;;;;5073580;28;20231;-62
2022/09/23 04:43:35;;;;;;;2.50;2.30;;;17.10;59.50;;;;;;5073164;28;20171;-62
2022/09/23 04:46:03;;;;;;;2.22;2.10;;;17.10;59.50;;;;;;5073454;28;20251;-62
2022/09/23 04:48:28;;;;;;;2.63;2.42;;;17.00;59.40;;;;;;5073980;28;20174;-62
2022/09/23 04:51:00;;;;;;;2.17;2.08;;;17.10;59.50;;;;;;5073067;28;20328;-62
2022/09/23 04:53:25;;;;;;;2.70;2.50;;;17.00;59.50;;;;;;5073804;28;20166;-62
2022/09/23 04:55:51;;;;;;;2.42;2.25;;;17.10;59.50;;;;;;5073679;28;20251;-62
2022/09/23 04:58:17;;;;;;;2.70;2.50;;;17.00;59.50;;;;;;5072641;28;20201;-62
2022/09/23 05:00:43;;;;;;;2.50;2.30;;;17.00;59.50;;;;;;5073744;28;20181;-62
2022/09/23 05:03:09;;;;;;;2.60;2.20;;;17.00;59.50;;;;;;5073402;28;20177;-62
2022/09/23 05:05:34;;;;;;;2.53;2.33;;;17.00;59.50;;;;;;5072769;28;20170;-62
2022/09/23 05:08:00;;;;;;;2.72;2.53;;;17.00;59.50;;;;;;5073425;28;20178;-62
2022/09/23 05:10:25;;;;;;;3.05;2.30;;;17.00;59.50;;;;;;5073253;28;20226;-63
2022/09/23 05:12:51;;;;;;;3.08;2.67;;;17.00;59.40;;;;;;5072614;28;20299;-63
2022/09/23 05:15:16;;;;;;;2.72;2.53;;;17.00;59.50;;;;;;5072754;28;20644;-62
2022/09/23 05:17:42;;;;;;;2.50;2.30;;;17.00;59.50;;;;;;5073512;28;20766;-62
2022/09/23 05:20:09;;;;;;;2.65;2.33;;;17.00;59.50;;;;;;5072170;28;20174;-62
2022/09/23 05:22:34;;;;;;;2.75;2.55;;;17.00;59.50;;;;;;5073193;28;20178;-62
2022/09/23 05:25:01;;;;;;;2.80;2.60;;;17.00;59.40;;;;;;5072864;28;20304;-63
2022/09/23 05:27:26;;;;;;;2.58;2.38;;;17.00;60.10;;;;;;5072244;28;20167;-62
2022/09/23 05:29:52;;;;;;;2.70;2.50;;;17.00;59.50;;;;;;5073019;28;20174;-62
2022/09/23 05:32:18;;;;;;;2.60;2.40;;;17.00;59.40;;;;;;5072898;28;20178;-62
2022/09/23 05:34:43;;;;;;;2.70;2.50;;;17.00;59.50;;;;;;5072340;28;20178;-62
2022/09/23 05:37:09;;;;;;;2.53;2.33;;;17.00;59.50;;;;;;5072662;28;20676;-62
2022/09/23 05:39:35;;;;;;;2.58;2.38;;;17.00;59.50;;;;;;5072890;28;20175;-62
2022/09/23 05:42:00;;;;;;;3.47;2.42;;;17.00;59.50;;;;;;5071846;28;20175;-62
2022/09/23 05:44:26;;;;;;;2.30;2.10;;;17.00;59.50;;;;;;5072695;28;20177;-62
2022/09/23 05:46:51;;;;;;;2.85;2.53;;;17.00;59.50;;;;;;5072200;28;20170;-62
2022/09/23 05:49:17;;;;;;;2.72;2.53;;;17.00;59.40;;;;;;5072566;28;20177;-62
2022/09/23 05:51:42;;;;;;;2.30;2.13;;;17.00;59.50;;;;;;5072970;28;20189;-62
2022/09/23 05:54:08;;;;;;;2.63;2.42;;;17.00;59.50;;;;;;5071812;28;20181;-62
2022/09/23 05:56:34;;;;;;;2.78;2.53;;;17.00;59.50;;;;;;5072673;28;20209;-62
2022/09/23 05:59:00;;;;;;;2.35;2.15;;;17.00;59.50;;;;;;5072483;28;20167;-62
2022/09/23 06:01:27;;;;;;;2.85;2.65;;;17.00;59.50;;;;;;5072263;28;20178;-62
2022/09/23 06:03:54;;;;;;;2.97;2.70;;;17.00;59.50;;;;;;5072813;28;20178;-62
2022/09/23 06:06:41;;;;;;;2.80;2.60;;;17.00;59.50;;;;;;5072266;28;20659;-62
2022/09/23 06:09:08;;;;;;;2.85;2.65;;;17.00;59.50;;;;;;5070152;28;20339;-62
2022/09/23 06:11:34;;;;;;;2.55;2.35;;;17.00;59.40;;;;;;5071721;28;20201;-62
2022/09/23 06:14:00;;;;;;;2.53;2.33;;;17.00;59.50;;;;;;5072551;28;20637;-62
2022/09/23 06:16:27;;;;;;;2.40;2.20;;;17.00;59.50;;;;;;5071874;28;20221;-63
2022/09/23 06:18:52;;;;;;;2.85;2.60;;;17.00;59.50;;;;;;5072595;28;20193;-62
2022/09/23 06:21:18;;;;;;;2.90;2.70;;;17.00;59.50;;;;;;5072318;28;20174;-62
2022/09/23 06:23:44;;;;;;;2.83;2.63;;;17.00;60.20;;;;;;5071717;28;20174;-62
2022/09/23 06:26:11;;;;;;;2.55;2.35;;;17.00;59.50;;;;;;5072412;28;20177;-62
2022/09/23 06:28:37;;;;;;;3.20;2.20;;;17.00;59.40;;;;;;5072331;28;20186;-62
2022/09/23 06:31:07;;;;;;;2.92;1.98;;;17.00;59.50;;;;;;5071482;28;20538;-62
2022/09/23 06:33:33;;;;;;;2.50;2.30;;;17.00;59.50;;;;;;5072485;28;20178;-62
2022/09/23 06:35:59;;;;;;;2.80;2.60;;;17.00;59.50;;;;;;5071398;28;20540;-62
2022/09/23 06:38:25;;;;;;;3.08;2.50;;;17.00;59.50;;;;;;5073377;28;20174;-62
2022/09/23 06:40:55;;;;;;;2.45;2.25;;;17.10;59.60;;;;;;5076347;28;20243;-62
2022/09/23 06:43:22;;;;;;;3.40;3.10;;;17.10;59.50;;;;;;5075287;28;20171;-63
2022/09/23 06:45:54;;;;;;;4.47;2.70;;;17.10;59.20;;;;;;5076168;28;20182;-62
2022/09/23 06:48:20;;;;;;;6.20;2.72;;;17.10;59.20;;;;;;5075794;28;20213;-64
2022/09/23 06:50:48;;;;;;;5.30;2.60;;;17.10;59.20;;;;;;5075651;28;20206;-63
2022/09/23 06:53:14;;;;;;;3.28;2.15;;;17.10;59.40;;;;;;5075837;28;20520;-63
2022/09/23 06:55:40;;;;;;;2.90;2.63;;;17.10;59.40;;;;;;5075646;28;20669;-63
2022/09/23 06:58:06;;;;;;;2.78;2.28;;;17.10;59.40;;;;;;5075017;28;20185;-62
2022/09/23 07:00:31;;;;;;;4.50;2.72;;;17.10;59.50;;;;;;5075842;28;20652;-64
2022/09/23 07:02:57;;;;;;;20.38;3.88;;;17.10;59.40;;;;;;5075496;28;20261;-62
2022/09/23 07:05:22;;;;;;;15.70;3.72;;;17.20;59.50;;;;;;5075061;28;20265;-63
2022/09/23 07:07:48;;;;;;;5.93;3.08;;;17.20;59.50;;;;;;5075546;28;20251;-62
2022/09/23 07:10:13;;;;;;;6.97;3.10;;;17.20;59.60;;;;;;5075170;28;20226;-63
2022/09/23 07:12:39;;;;;;;10.43;3.00;;;17.20;59.70;;;;;;5074988;28;20656;-63
2022/09/23 07:15:05;;;;;;;11.40;3.05;;;17.10;59.60;;;;;;5075179;28;20167;-63
2022/09/23 07:17:30;;;;;;;7.70;2.58;;;17.10;59.70;;;;;;5075532;28;20657;-63
2022/09/23 07:19:57;;;;;;;5.57;3.58;;;17.10;59.70;;;;;;5074662;28;20178;-63
2022/09/23 07:22:23;;;;;;;7.57;3.10;;;17.10;59.70;;;;;;5075426;28;20206;-63
2022/09/23 07:24:49;;;;;;;3.80;2.78;;;17.10;59.80;;;;;;5075596;28;20220;-63
2022/09/23 07:27:15;;;;;;;5.05;2.80;;;17.10;59.80;;;;;;5074474;28;20178;-63
2022/09/23 07:29:41;;;;;;;3.72;2.78;;;17.10;59.80;;;;;;5075474;28;20587;-63
2022/09/23 07:32:07;;;;;;;6.68;2.80;;;17.10;59.80;;;;;;5075049;28;20220;-63
2022/09/23 07:34:32;;;;;;;3.03;2.50;;;17.10;59.80;;;;;;5074537;28;20171;-63
2022/09/23 07:36:58;;;;;;;5.03;2.35;;;17.10;59.80;;;;;;5074667;28;20210;-63
2022/09/23 07:39:23;;;;;;;5.40;2.80;;;17.10;59.80;;;;;;5074513;28;20170;-63
2022/09/23 07:41:49;;;;;;;4.55;2.83;;;17.10;59.80;;;;;;5075134;28;20509;-63
2022/09/23 07:44:15;;;;;;;3.95;2.67;;;17.10;59.80;;;;;;5074793;28;20640;-63
2022/09/23 07:46:40;;;;;;;4.38;2.50;;;17.10;59.80;;;;;;5074431;28;20175;-63
2022/09/23 07:49:06;;;;;;;5.90;2.70;;;17.10;59.80;;;;;;5074592;28;20257;-63
2022/09/23 07:51:34;;;;;;;3.97;2.33;;;17.10;59.80;;;;;;5075115;28;20183;-63
2022/09/23 07:53:59;;;;;;;4.22;2.60;;;17.10;59.80;;;;;;5074065;28;20308;-63
2022/09/23 07:56:26;;;;;;;3.45;2.90;;;17.20;59.80;;;;;;5074886;28;20293;-63
2022/09/23 07:59:02;;;;;;;4.70;3.25;;;17.20;59.80;;;;;;5074850;28;20648;-63
2022/09/23 08:01:38;;;;;;;4.78;2.60;;;17.20;59.80;;;;;;5074104;28;20182;-63
2022/09/23 08:04:16;;;;;;;4.03;2.45;;;17.20;59.90;;;;;;5074529;28;20220;-63
2022/09/23 08:06:47;;;;;;;2.92;2.40;;;17.20;59.80;;;;;;5073644;28;20185;-63
2022/09/23 08:09:13;;;;;;;4.82;3.10;;;17.20;59.90;;;;;;5073460;28;20230;-63
2022/09/23 08:11:40;;;;;;;4.47;3.13;;;17.20;59.80;;;;;;5074681;28;20178;-63
2022/09/23 08:14:12;;;;;;;3.58;2.67;;;17.20;59.90;;;;;;5074351;28;20189;-64
2022/09/23 08:16:40;;;;;;;7.03;2.97;;;17.20;60.00;;;;;;5073992;28;20206;-64
2022/09/23 08:19:06;;;;;;;4.28;2.97;;;17.30;60.10;;;;;;5074195;28;20212;-64
2022/09/23 08:21:32;;;;;;;4.00;2.42;;;17.30;60.10;;;;;;5073775;28;20267;-64
2022/09/23 08:24:00;;;;;;;4.28;2.60;;;17.30;59.90;;;;;;5074085;28;20166;-63
2022/09/23 08:26:26;;;;;;;3.70;2.70;;;17.30;60.10;;;;;;5074238;28;20178;-63
2022/09/23 08:28:55;;;;;;;4.40;2.60;;;17.30;60.20;;;;;;5055510;28;20240;-63
2022/09/23 08:31:21;;;;;;;3.30;2.45;;;17.30;59.90;;;;;;5074059;28;20173;-63
2022/09/23 08:33:46;;;;;;;2.97;2.53;;;17.30;59.80;;;;;;5074277;28;20171;-63
2022/09/23 08:36:12;;;;;;;4.47;2.45;;;17.30;59.70;;;;;;5073068;28;20217;-64
2022/09/23 08:38:38;;;;;;;4.28;2.60;;;17.40;59.90;;;;;;5074017;28;20180;-64
2022/09/23 08:41:42;;;;;;;2.70;2.00;;;17.40;59.70;;;;;;5073674;28;20630;-64
2022/09/23 08:44:13;;;;;;;4.68;2.47;;;17.40;59.70;;;;;;5061622;28;20186;-63
2022/09/23 08:46:43;;;;;;;2.38;2.10;;;17.40;59.70;;;;;;5072733;28;20174;-63
2022/09/23 08:49:09;;;;;;;3.45;2.67;;;17.40;59.80;;;;;;5072463;28;20586;-63
2022/09/23 08:51:39;;;;;;;3.20;2.90;;;17.40;59.80;;;;;;5071816;28;20632;-63
2022/09/23 08:54:04;;;;;;;4.43;3.00;;;17.40;59.70;;;;;;5055743;28;20625;-63
2022/09/23 08:56:31;;;;;;;3.67;2.60;;;17.40;59.70;;;;;;5073471;28;20210;-63
2022/09/23 08:59:13;;;;;;;2.80;2.50;;;17.40;59.70;;;;;;5071625;28;20177;-63
2022/09/23 09:01:51;;;;;;;6.18;2.85;;;17.40;59.70;;;;;;5055681;28;20184;-63
2022/09/23 09:04:24;;;;;;;2.65;2.28;;;17.40;59.70;;;;;;5072575;28;20600;-63
2022/09/23 09:07:01;;;;;;;2.88;2.47;;;17.40;59.70;;;;;;5072270;28;20510;-63
2022/09/23 09:09:45;;;;;;;3.30;2.53;;;17.40;59.70;;;;;;5073387;28;20232;-63
2022/09/23 09:12:15;;;;;;;2.90;2.60;;;17.40;59.60;;;;;;5071223;28;20204;-63
2022/09/23 09:14:49;;;;;;;2.97;2.28;;;17.50;59.60;;;;;;5072169;28;20166;-63
2022/09/23 09:17:35;;;;;;;4.72;2.38;;;17.50;59.60;;;;;;5071983;28;20214;-63
2022/09/23 09:20:07;;;;;;;2.50;2.30;;;17.50;59.70;;;;;;5071095;28;20549;-63
2022/09/23 09:22:56;;;;;;;2.30;2.10;;;17.50;59.60;;;;;;5073352;28;20178;-64
2022/09/23 09:25:28;;;;;;;2.40;2.20;;;17.50;59.60;;;;;;5056487;28;20170;-64
2022/09/23 09:27:54;;;;;;;2.53;2.10;;;17.50;59.60;;;;;;5073127;28;20531;-63
2022/09/23 09:30:20;;;;;;;3.55;2.35;;;17.50;59.60;;;;;;5071769;28;20183;-64
2022/09/23 09:32:59;;;;;;;3.13;2.28;;;17.50;59.60;;;;;;5072334;28;20228;-63
2022/09/23 09:35:58;;;;;;;3.17;2.30;;;17.60;59.60;;;;;;5072919;28;20303;-63
2022/09/23 09:38:23;;;;;;;3.03;2.40;;;17.60;59.60;;;;;;5063365;28;20595;-63
2022/09/23 09:40:49;;;;;;;3.45;2.38;;;17.60;59.60;;;;;;5071123;28;20175;-63
2022/09/23 09:43:24;;;;;;;2.67;2.28;;;17.60;59.50;;;;;;5072874;28;20175;-63
2022/09/23 09:46:21;;;;;;;2.80;2.33;;;17.60;59.50;;;;;;5072706;28;20178;-63
2022/09/23 09:48:53;;;;;;;3.38;2.35;;;17.60;59.50;;;;;;5073019;28;20175;-63
2022/09/23 09:51:20;;;;;;;3.13;2.13;;;17.70;59.50;;;;;;5072625;28;20223;-63
2022/09/23 09:53:45;;;;;;;2.53;2.33;;;17.70;59.60;;;;;;5072257;28;20178;-63
2022/09/23 09:56:13;;;;;;;4.38;2.47;;;17.70;59.50;;;;;;5072336;28;20212;-63
2022/09/23 09:58:54;;;;;;;2.67;2.25;;;17.70;59.60;;;;;;5072791;28;20179;-63
2022/09/23 10:01:24;;;;;;;3.53;2.33;;;17.70;59.60;;;;;;5071952;28;20261;-63
2022/09/23 10:03:51;;;;;;;2.90;2.33;;;17.70;59.60;;;;;;5071679;28;20174;-63
2022/09/23 10:06:23;;;;;;;3.40;2.28;;;17.60;59.50;;;;;;5054706;28;20186;-63
2022/09/23 10:09:00;;;;;;;2.88;2.40;;;17.70;59.60;;;;;;5071801;28;20175;-63
2022/09/23 10:11:26;;;;;;;2.60;2.15;;;17.70;59.60;;;;;;5072751;28;20182;-64
2022/09/23 10:14:16;;;;;;;3.72;2.28;;;17.70;59.60;;;;;;5073521;28;20564;-64
2022/09/23 10:16:41;;;;;;;3.30;2.50;;;17.70;59.60;;;;;;5076570;28;20680;-64
2022/09/23 10:19:13;;;;;;;2.88;2.50;;;17.70;59.60;;;;;;5058491;28;20182;-64
2022/09/23 10:21:41;;;;;;;2.30;2.10;;;17.70;59.50;;;;;;5074881;28;20599;-64
2022/09/23 10:24:06;;;;;;;2.60;2.30;;;17.70;59.40;;;;;;5076310;28;20179;-64
2022/09/23 10:26:45;;;;;;;3.80;2.47;;;17.80;59.40;;;;;;5076461;28;20620;-63
2022/09/23 10:29:39;;;;;;;1.90;1.80;;;17.80;59.40;;;;;;5074407;28;20185;-63
2022/09/23 10:32:20;;;;;;;3.15;2.42;;;17.80;59.40;;;;;;5076305;28;20319;-62
2022/09/23 10:35:13;;;;;;;3.20;2.30;;;17.80;59.40;;;;;;5076535;28;20181;-63
2022/09/23 10:37:40;;;;;;;3.58;2.50;;;17.80;59.40;;;;;;5075321;28;20201;-62
2022/09/23 10:48:46;;;;;;;9.25;2.83;;;17.90;59.60;;;;;;5075047;28;20661;-64
2022/09/23 10:51:18;;;;;;;3.20;2.30;;;18.00;60.10;;;;;;5075113;28;20198;-63
2022/09/23 10:53:56;;;;;;;2.35;1.98;;;18.00;59.80;;;;;;5059036;28;20175;-63
2022/09/23 10:56:35;;;;;;;4.45;2.42;;;18.00;59.90;;;;;;5075157;28;20202;-63
2022/09/23 10:59:31;;;;;;;4.68;2.55;;;18.00;59.80;;;;;;5058991;28;20170;-64
2022/09/23 11:02:04;;;;;;;6.45;2.22;;;18.00;59.90;;;;;;5075626;28;20182;-63
2022/09/23 11:04:42;;;;;;;6.22;2.45;;;18.00;60.00;;;;;;5073827;28;20179;-63
2022/09/23 11:07:26;;;;;;;5.28;2.80;;;18.00;60.10;;;;;;5058382;28;20632;-63
2022/09/23 11:10:13;;;;;;;2.83;2.47;;;18.00;60.10;;;;;;5074893;28;20254;-63
2022/09/23 11:13:14;;;;;;;3.15;2.35;;;18.00;60.20;;;;;;5073799;28;20174;-63
2022/09/23 11:15:43;;;;;;;2.72;2.15;;;18.00;60.00;;;;;;5076203;28;20196;-64
2022/09/23 11:18:19;;;;;;;3.67;2.40;;;18.00;60.00;;;;;;5072470;28;20186;-64
2022/09/23 11:21:06;;;;;;;3.75;2.05;;;18.00;60.10;;;;;;5054078;28;20273;-64
2022/09/23 11:23:50;;;;;;;8.75;2.60;;;17.90;60.00;;;;;;5054110;28;20540;-64
2022/09/23 11:26:22;;;;;;;5.40;2.15;;;18.00;60.40;;;;;;5032307;28;20172;-62
2022/09/23 11:29:09;;;;;;;3.72;2.25;;;17.90;60.30;;;;;;5033231;28;20211;-62
2022/09/23 11:32:00;;;;;;;6.72;2.38;;;17.90;60.40;;;;;;5033695;28;20207;-61
2022/09/23 11:34:48;;;;;;;5.30;2.58;;;17.90;60.40;;;;;;5032815;28;20176;-61
2022/09/23 11:37:23;;;;;;;5.32;2.20;;;17.90;60.50;;;;;;5034158;28;20218;-62
2022/09/23 11:40:02;;;;;;;4.07;2.08;;;17.90;60.40;;;;;;5032698;28;20178;-62
2022/09/23 11:42:38;;;;;;;7.38;2.22;;;18.00;60.50;;;;;;5032886;28;20187;-61
2022/09/23 11:45:07;;;;;;;3.95;2.00;;;18.00;60.50;;;;;;5034037;28;20175;-61
2022/09/23 11:47:42;;;;;;;4.30;2.47;;;17.90;60.50;;;;;;5031974;28;20180;-61
2022/09/23 11:50:22;;;;;;;4.38;2.08;;;18.00;60.50;;;;;;5032728;28;20630;-65
2022/09/23 11:53:08;;;;;;;5.90;2.63;;;18.00;60.60;;;;;;5032280;28;21029;-62
2022/09/23 11:55:39;;;;;;;4.55;2.20;;;18.00;60.50;;;;;;5032379;28;20670;-62
2022/09/23 11:58:09;;;;;;;7.10;2.17;;;17.90;60.50;;;;;;5032756;28;20666;-62
2022/09/23 12:00:37;;;;;;;2.95;2.50;;;17.90;60.40;;;;;;5032298;28;20188;-62
2022/09/23 12:03:20;;;;;;;5.93;2.33;;;17.90;60.40;;;;;;5032254;28;20263;-62
2022/09/23 12:05:47;;;;;;;2.97;2.35;;;17.90;60.40;;;;;;5051146;28;20182;-62
2022/09/23 12:08:18;;;;;;;5.00;2.58;;;17.90;60.40;;;;;;5051352;28;20182;-62
2022/09/23 12:10:56;;;;;;;5.28;2.38;;;17.80;60.30;;;;;;5037013;28;1046365;-62
2022/09/23 12:13:40;;;;;;;5.72;2.28;;;17.90;60.40;;;;;;5066955;28;20183;-63
2022/09/23 12:16:37;;;;;;;2.30;1.95;;;17.90;60.40;;;;;;5053940;28;20630;-63
2022/09/23 12:19:09;;;;;;;6.32;2.40;;;17.90;60.30;;;;;;5054297;28;20209;-63
2022/09/23 12:21:58;;;;;;;6.45;2.35;;;17.80;60.20;;;;;;5057012;28;20201;-63
2022/09/23 12:24:39;;;;;;;6.22;2.10;;;17.80;60.20;;;;;;5074245;28;20181;-62
2022/09/23 12:27:07;;;;;;;3.03;2.03;;;17.90;60.30;;;;;;5074182;28;20174;-62
2022/09/23 12:29:33;;;;;;;4.95;2.17;;;17.90;61.00;;;;;;5072265;28;20186;-62
2022/09/23 12:31:59;;;;;;;4.43;1.70;;;17.90;60.10;;;;;;5072839;28;20182;-61
2022/09/23 12:34:29;;;;;;;4.05;2.08;;;17.90;60.10;;;;;;5074117;28;20210;-62
2022/09/23 12:37:04;;;;;;;3.85;2.40;;;17.90;60.00;;;;;;5072663;28;20237;-62
2022/09/23 12:39:36;;;;;;;2.72;1.80;;;17.90;60.00;;;;;;5063261;28;20181;-62
2022/09/23 12:42:09;;;;;;;4.13;1.70;;;17.90;60.00;;;;;;5051875;28;20186;-62
2022/09/23 12:44:40;;;;;;;2.78;1.95;;;17.90;59.90;;;;;;5052904;28;20175;-62
2022/09/23 12:47:24;;;;;;;3.92;2.15;;;17.90;59.80;;;;;;5053511;28;20186;-62
2022/09/23 12:49:53;;;;;;;4.70;1.98;;;18.00;59.80;;;;;;5053247;28;20245;-62
2022/09/23 12:52:19;;;;;;;7.97;2.20;;;18.00;60.00;;;;;;5053608;28;20179;-62
2022/09/23 12:54:45;;;;;;;2.72;1.85;;;18.00;60.10;;;;;;5053632;28;20183;-63
2022/09/23 12:57:20;;;;;;;4.65;2.13;;;18.00;60.10;;;;;;5051399;28;20298;-64
2022/09/23 13:00:12;;;;;;;4.35;1.92;;;18.00;60.20;;;;;;5053444;28;20182;-63
2022/09/23 13:08:41;;;;;;;3.58;2.00;;;18.00;60.20;;;;;;5052613;28;20266;-63
2022/09/23 13:11:27;;;;;;;3.35;1.67;;;18.00;60.10;;;;;;5051461;28;20266;-63
2022/09/23 13:13:54;;;;;;;3.03;1.98;;;18.00;60.10;;;;;;5052426;28;20237;-63
2022/09/23 13:16:24;;;;;;;2.28;1.75;;;18.00;60.10;;;;;;5051693;28;20206;-63
2022/09/23 13:19:03;;;;;;;3.88;2.00;;;18.00;60.10;;;;;;5051682;28;20175;-63
2022/09/23 13:21:41;;;;;;;2.78;2.55;;;18.00;60.10;;;;;;5053453;28;20183;-63
2022/09/23 13:24:16;;;;;;;2.20;2.00;;;17.90;60.10;;;;;;5052444;28;20537;-62